»·PEaware :: N508DB KBFL-KSNA

N508DB :: KBFL-KSNA

FLIGHT INFORMATION

Flight Status: Arrived
Operator: Privately registered:
United States
More flights under this callsign
Pilot: John H. (10732)
Aircraft: Unknown
(LEG2)
More flights by this aircraft type
Origin: KBFL Meadows
United States
Destination: KSNA John Wayne-Orange Co
United States
More flights between these airports :: More routes between these airports
Route: +MEADO3 LHS V459 SLI
File this flight plan on PilotEdge
Remarks:
Altitude:
(Current/Filed)
15,000ft
Speed:
(Current/Filed)
250kts
Departed: 03-Jun-19 07:45 AM
Arrived: 03-Jun-19 08:35 AM
Distance/Time
Traveled:
121nm/0:50
Distance/Time
To Go:
Arrived

Flight Plot

Page will automatically refresh every two minutes.

Flight plan parsing failed; only flown route is shown


Map Options




Map Legend


Flown Route
Filed Route
Departure Airport
Arrival Airport
Navaid (VOR, NDB)
Fix

Horizontal Profiles

Position Reports

Time Latitude Longitude Heading Altitude Ground
Speed
03-Jun-19 07:40 35.435210 -119.053974 134 510ft 0kts
03-Jun-19 07:41 35.435210 -119.053974 134 510ft 0kts
03-Jun-19 07:42 35.435210 -119.053974 134 510ft 0kts
03-Jun-19 07:43 35.435210 -119.053974 134 510ft 0kts
03-Jun-19 07:44 35.435210 -119.053974 134 510ft 0kts
03-Jun-19 07:45 35.430261 -119.049614 135 510ft 47kts
03-Jun-19 07:46 35.425531 -119.045418 267 510ft 0kts
03-Jun-19 07:47 35.432842 -119.055926 311 830ft 127kts
03-Jun-19 07:48 35.457821 -119.088103 311 3114ft 141kts
03-Jun-19 07:49 35.496112 -119.138090 313 3020ft 232kts
03-Jun-19 07:50 35.542047 -119.197816 313 3015ft 246kts
03-Jun-19 07:51 35.589753 -119.259863 313 3014ft 249kts
03-Jun-19 07:52 35.585251 -119.320437 186 4702ft 196kts
03-Jun-19 07:53 35.544535 -119.291305 142 7684ft 154kts
03-Jun-19 07:53 35.515106 -119.266024 142 10171ft 155kts
03-Jun-19 07:55 35.471452 -119.231266 142 13071ft 196kts
03-Jun-19 07:56 35.415135 -119.183515 143 13024ft 276kts
03-Jun-19 07:56 35.361453 -119.137583 144 13166ft 285kts
03-Jun-19 07:58 35.286202 -119.075436 143 13969ft 276kts
03-Jun-19 07:59 35.224477 -119.023427 143 15029ft 275kts
03-Jun-19 07:59 35.168691 -118.977011 143 15042ft 300kts
03-Jun-19 08:00 35.098679 -118.918963 144 15042ft 308kts
03-Jun-19 08:01 35.027378 -118.859973 144 15042ft 310kts
03-Jun-19 08:02 34.955664 -118.800752 144 15054ft 311kts
03-Jun-19 08:03 34.883978 -118.741641 144 15057ft 311kts
03-Jun-19 08:04 34.812312 -118.682717 144 15054ft 311kts
03-Jun-19 08:05 34.740242 -118.623594 144 15056ft 311kts
03-Jun-19 08:06 34.667064 -118.567300 151 15053ft 313kts
03-Jun-19 08:07 34.588427 -118.521229 152 14975ft 316kts
03-Jun-19 08:08 34.507730 -118.474035 152 14342ft 326kts
03-Jun-19 08:09 34.426166 -118.426409 153 13506ft 325kts
03-Jun-19 08:10 34.345744 -118.379570 153 13018ft 311kts
03-Jun-19 08:11 34.269303 -118.335086 155 13001ft 302kts
03-Jun-19 08:12 34.193332 -118.291005 155 12957ft 303kts
03-Jun-19 08:13 34.115346 -118.245857 155 12059ft 317kts
03-Jun-19 08:14 34.036519 -118.200348 153 11073ft 320kts
03-Jun-19 08:15 33.956136 -118.153995 153 10073ft 319kts
03-Jun-19 08:16 33.876106 -118.107923 155 9160ft 316kts
03-Jun-19 08:17 33.799463 -118.063623 152 9020ft 297kts
03-Jun-19 08:18 33.784865 -117.977789 54 8695ft 299kts
03-Jun-19 08:19 33.826677 -117.897630 59 7701ft 274kts
03-Jun-19 08:20 33.865495 -117.820627 58 6698ft 265kts
03-Jun-19 08:21 33.903486 -117.746146 57 5699ft 257kts
03-Jun-19 08:22 33.954609 -117.693142 27 5041ft 236kts
03-Jun-19 08:23 34.008065 -117.669467 335 5003ft 192kts
03-Jun-19 08:24 34.011591 -117.717657 217 5009ft 162kts
03-Jun-19 08:25 33.969949 -117.712554 164 5014ft 158kts
03-Jun-19 08:26 33.925738 -117.709743 209 5005ft 165kts
03-Jun-19 08:27 33.883988 -117.737335 206 4385ft 179kts
03-Jun-19 08:28 33.840958 -117.763977 208 3422ft 167kts
03-Jun-19 08:29 33.800438 -117.789657 208 2565ft 160kts
03-Jun-19 08:30 33.761860 -117.814133 208 1969ft 149kts
03-Jun-19 08:31 33.729485 -117.834673 209 1202ft 110kts
03-Jun-19 08:32 33.701450 -117.852486 209 550ft 112kts
03-Jun-19 08:33 33.679059 -117.866771 210 59ft 48kts
03-Jun-19 08:34 33.676608 -117.869819 207 59ft 29kts
03-Jun-19 08:35 33.675339 -117.872081 14 59ft 18kts
03-Jun-19 08:36 33.675406 -117.871529 224 59ft 0kts

Navigation Log

Ident Type
Flight plan parsing failed, navigation log unavailable